sensor_id;sensor_type;location;lat;lon;timestamp;temperature;humidity
66670;DHT22;53568;52.164;4.472;2022-12-05T00:00:52;5.40;77.32
66670;DHT22;53568;52.164;4.472;2022-12-05T00:03:18;5.39;77.70
66670;DHT22;53568;52.164;4.472;2022-12-05T00:05:44;5.36;77.77
66670;DHT22;53568;52.164;4.472;2022-12-05T00:08:10;5.39;77.85
66670;DHT22;53568;52.164;4.472;2022-12-05T00:10:36;5.43;77.81
66670;DHT22;53568;52.164;4.472;2022-12-05T00:13:01;5.54;77.70
66670;DHT22;53568;52.164;4.472;2022-12-05T00:15:27;5.56;77.57
66670;DHT22;53568;52.164;4.472;2022-12-05T00:17:52;5.50;77.80
66670;DHT22;53568;52.164;4.472;2022-12-05T00:20:18;5.49;77.91
66670;DHT22;53568;52.164;4.472;2022-12-05T00:22:45;5.46;78.06
66670;DHT22;53568;52.164;4.472;2022-12-05T00:25:11;5.35;78.30
66670;DHT22;53568;52.164;4.472;2022-12-05T00:27:36;5.44;78.34
66670;DHT22;53568;52.164;4.472;2022-12-05T00:30:02;5.40;78.41
66670;DHT22;53568;52.164;4.472;2022-12-05T00:32:28;5.49;78.28
66670;DHT22;53568;52.164;4.472;2022-12-05T00:34:54;5.62;78.03
66670;DHT22;53568;52.164;4.472;2022-12-05T00:37:20;5.66;77.93
66670;DHT22;53568;52.164;4.472;2022-12-05T00:39:46;5.47;78.56
66670;DHT22;53568;52.164;4.472;2022-12-05T00:42:11;5.59;78.35
66670;DHT22;53568;52.164;4.472;2022-12-05T00:44:37;5.67;77.93
66670;DHT22;53568;52.164;4.472;2022-12-05T00:47:02;5.71;77.97
66670;DHT22;53568;52.164;4.472;2022-12-05T00:49:28;5.70;78.00
66670;DHT22;53568;52.164;4.472;2022-12-05T00:51:53;5.66;78.25
66670;DHT22;53568;52.164;4.472;2022-12-05T00:54:19;5.54;78.70
66670;DHT22;53568;52.164;4.472;2022-12-05T00:56:45;5.53;78.77
66670;DHT22;53568;52.164;4.472;2022-12-05T00:59:17;5.49;79.20
66670;DHT22;53568;52.164;4.472;2022-12-05T01:01:45;5.52;79.42
66670;DHT22;53568;52.164;4.472;2022-12-05T01:04:18;5.63;78.83
66670;DHT22;53568;52.164;4.472;2022-12-05T01:06:44;5.62;78.86
66670;DHT22;53568;52.164;4.472;2022-12-05T01:09:13;5.56;79.06
66670;DHT22;53568;52.164;4.472;2022-12-05T01:11:40;5.64;79.15
66670;DHT22;53568;52.164;4.472;2022-12-05T01:14:05;5.66;78.80
66670;DHT22;53568;52.164;4.472;2022-12-05T01:16:34;5.52;79.22
66670;DHT22;53568;52.164;4.472;2022-12-05T01:19:04;5.59;78.96
66670;DHT22;53568;52.164;4.472;2022-12-05T01:21:30;5.63;79.09
66670;DHT22;53568;52.164;4.472;2022-12-05T01:23:56;5.54;79.43
66670;DHT22;53568;52.164;4.472;2022-12-05T01:26:22;5.62;79.20
66670;DHT22;53568;52.164;4.472;2022-12-05T01:28:48;5.59;79.53
66670;DHT22;53568;52.164;4.472;2022-12-05T01:31:22;5.66;79.28
66670;DHT22;53568;52.164;4.472;2022-12-05T01:33:49;5.46;79.95
66670;DHT22;53568;52.164;4.472;2022-12-05T01:36:16;5.63;79.71
66670;DHT22;53568;52.164;4.472;2022-12-05T01:38:42;5.66;79.40
66670;DHT22;53568;52.164;4.472;2022-12-05T01:41:13;5.60;80.01
66670;DHT22;53568;52.164;4.472;2022-12-05T01:46:23;5.66;79.86
66670;DHT22;53568;52.164;4.472;2022-12-05T01:48:51;5.69;79.97
66670;DHT22;53568;52.164;4.472;2022-12-05T01:51:18;5.80;79.80
66670;DHT22;53568;52.164;4.472;2022-12-05T01:53:44;5.76;79.67
66670;DHT22;53568;52.164;4.472;2022-12-05T01:56:12;5.80;79.68
66670;DHT22;53568;52.164;4.472;2022-12-05T01:58:41;5.87;79.54
66670;DHT22;53568;52.164;4.472;2022-12-05T02:01:07;5.76;79.64
66670;DHT22;53568;52.164;4.472;2022-12-05T02:03:34;5.73;80.00
66670;DHT22;53568;52.164;4.472;2022-12-05T02:06:02;5.54;80.61
66670;DHT22;53568;52.164;4.472;2022-12-05T02:08:28;5.62;80.74
66670;DHT22;53568;52.164;4.472;2022-12-05T02:10:56;5.70;80.74
66670;DHT22;53568;52.164;4.472;2022-12-05T02:16:13;5.71;80.80
66670;DHT22;53568;52.164;4.472;2022-12-05T02:18:44;5.70;80.93
66670;DHT22;53568;52.164;4.472;2022-12-05T02:21:34;5.77;80.96
66670;DHT22;53568;52.164;4.472;2022-12-05T02:27:06;5.73;80.86
66670;DHT22;53568;52.164;4.472;2022-12-05T02:32:33;5.70;81.48
66670;DHT22;53568;52.164;4.472;2022-12-05T02:35:25;5.74;81.48
66670;DHT22;53568;52.164;4.472;2022-12-05T02:43:33;5.76;81.36
66670;DHT22;53568;52.164;4.472;2022-12-05T02:46:09;5.73;81.62
66670;DHT22;53568;52.164;4.472;2022-12-05T02:48:36;5.76;81.80
66670;DHT22;53568;52.164;4.472;2022-12-05T02:51:04;5.74;81.76
66670;DHT22;53568;52.164;4.472;2022-12-05T02:53:35;5.71;81.91
66670;DHT22;53568;52.164;4.472;2022-12-05T02:56:02;5.62;82.35
66670;DHT22;53568;52.164;4.472;2022-12-05T02:59:00;5.69;82.63
66670;DHT22;53568;52.164;4.472;2022-12-05T03:01:29;5.71;82.61
66670;DHT22;53568;52.164;4.472;2022-12-05T03:03:57;5.71;82.76
66670;DHT22;53568;52.164;4.472;2022-12-05T03:09:02;5.69;82.80
66670;DHT22;53568;52.164;4.472;2022-12-05T03:11:35;5.60;83.26
66670;DHT22;53568;52.164;4.472;2022-12-05T03:14:08;5.77;83.03
66670;DHT22;53568;52.164;4.472;2022-12-05T03:16:48;5.73;82.85
66670;DHT22;53568;52.164;4.472;2022-12-05T03:19:29;5.66;83.25
66670;DHT22;53568;52.164;4.472;2022-12-05T03:22:06;5.70;83.01
66670;DHT22;53568;52.164;4.472;2022-12-05T03:24:39;5.70;83.25
66670;DHT22;53568;52.164;4.472;2022-12-05T03:30:37;5.63;83.44
66670;DHT22;53568;52.164;4.472;2022-12-05T03:33:19;5.67;83.59
66670;DHT22;53568;52.164;4.472;2022-12-05T03:36:10;5.69;83.41
66670;DHT22;53568;52.164;4.472;2022-12-05T03:38:48;5.60;83.83
66670;DHT22;53568;52.164;4.472;2022-12-05T03:41:31;5.86;83.31
66670;DHT22;53568;52.164;4.472;2022-12-05T03:44:10;5.91;82.91
66670;DHT22;53568;52.164;4.472;2022-12-05T03:46:40;5.97;82.64
66670;DHT22;53568;52.164;4.472;2022-12-05T03:49:49;5.83;83.08
66670;DHT22;53568;52.164;4.472;2022-12-05T03:54:55;5.86;82.84
66670;DHT22;53568;52.164;4.472;2022-12-05T03:57:28;5.80;83.23
66670;DHT22;53568;52.164;4.472;2022-12-05T04:00:03;5.63;83.91
66670;DHT22;53568;52.164;4.472;2022-12-05T04:02:41;5.78;83.64
66670;DHT22;53568;52.164;4.472;2022-12-05T04:05:19;5.89;83.03
66670;DHT22;53568;52.164;4.472;2022-12-05T04:07:50;5.86;82.84
66670;DHT22;53568;52.164;4.472;2022-12-05T04:10:24;5.81;82.83
66670;DHT22;53568;52.164;4.472;2022-12-05T04:12:58;5.59;83.62
66670;DHT22;53568;52.164;4.472;2022-12-05T04:15:47;5.67;83.24
66670;DHT22;53568;52.164;4.472;2022-12-05T04:18:37;5.87;83.07
66670;DHT22;53568;52.164;4.472;2022-12-05T04:21:05;5.86;82.92
66670;DHT22;53568;52.164;4.472;2022-12-05T04:23:50;5.93;82.54
66670;DHT22;53568;52.164;4.472;2022-12-05T04:26:43;5.89;82.72
66670;DHT22;53568;52.164;4.472;2022-12-05T04:29:19;5.86;82.73
66670;DHT22;53568;52.164;4.472;2022-12-05T04:31:53;6.04;81.87
66670;DHT22;53568;52.164;4.472;2022-12-05T04:34:24;5.91;82.34
66670;DHT22;53568;52.164;4.472;2022-12-05T04:37:01;5.97;82.01
66670;DHT22;53568;52.164;4.472;2022-12-05T04:39:53;6.00;82.18
66670;DHT22;53568;52.164;4.472;2022-12-05T04:42:25;5.96;82.32
66670;DHT22;53568;52.164;4.472;2022-12-05T04:45:01;6.00;82.17
66670;DHT22;53568;52.164;4.472;2022-12-05T04:47:40;6.04;81.75
66670;DHT22;53568;52.164;4.472;2022-12-05T04:50:09;6.01;82.07
66670;DHT22;53568;52.164;4.472;2022-12-05T04:52:37;6.06;81.72
66670;DHT22;53568;52.164;4.472;2022-12-05T04:55:17;6.16;81.64
66670;DHT22;53568;52.164;4.472;2022-12-05T04:58:06;6.04;81.83
66670;DHT22;53568;52.164;4.472;2022-12-05T05:00:42;6.14;81.66
66670;DHT22;53568;52.164;4.472;2022-12-05T05:06:06;6.17;81.57
66670;DHT22;53568;52.164;4.472;2022-12-05T05:08:32;6.30;81.09
66670;DHT22;53568;52.164;4.472;2022-12-05T05:11:16;6.34;81.23
66670;DHT22;53568;52.164;4.472;2022-12-05T05:13:42;6.40;80.89
66670;DHT22;53568;52.164;4.472;2022-12-05T05:16:12;6.34;81.22
66670;DHT22;53568;52.164;4.472;2022-12-05T05:18:38;6.46;80.83
66670;DHT22;53568;52.164;4.472;2022-12-05T05:21:03;6.52;80.54
66670;DHT22;53568;52.164;4.472;2022-12-05T05:23:29;6.45;80.99
66670;DHT22;53568;52.164;4.472;2022-12-05T05:25:55;6.32;81.47
66670;DHT22;53568;52.164;4.472;2022-12-05T05:28:21;6.24;81.75
66670;DHT22;53568;52.164;4.472;2022-12-05T05:30:47;6.17;82.17
66670;DHT22;53568;52.164;4.472;2022-12-05T05:33:13;6.35;81.75
66670;DHT22;53568;52.164;4.472;2022-12-05T05:35:39;6.35;81.39
66670;DHT22;53568;52.164;4.472;2022-12-05T05:38:04;6.41;81.63
66670;DHT22;53568;52.164;4.472;2022-12-05T05:40:30;6.49;81.36
66670;DHT22;53568;52.164;4.472;2022-12-05T05:42:55;6.42;81.61
66670;DHT22;53568;52.164;4.472;2022-12-05T05:45:21;6.41;81.71
66670;DHT22;53568;52.164;4.472;2022-12-05T05:47:48;6.34;81.89
66670;DHT22;53568;52.164;4.472;2022-12-05T05:50:14;6.38;82.04
66670;DHT22;53568;52.164;4.472;2022-12-05T05:52:40;6.52;81.48
66670;DHT22;53568;52.164;4.472;2022-12-05T05:55:07;6.32;82.11
66670;DHT22;53568;52.164;4.472;2022-12-05T05:57:34;6.55;81.55
66670;DHT22;53568;52.164;4.472;2022-12-05T06:00:02;6.46;81.75
66670;DHT22;53568;52.164;4.472;2022-12-05T06:02:32;6.30;82.32
66670;DHT22;53568;52.164;4.472;2022-12-05T06:04:58;6.44;82.22
66670;DHT22;53568;52.164;4.472;2022-12-05T06:07:24;6.44;82.18
66670;DHT22;53568;52.164;4.472;2022-12-05T06:09:49;6.28;82.89
66670;DHT22;53568;52.164;4.472;2022-12-05T06:12:15;6.25;82.73
66670;DHT22;53568;52.164;4.472;2022-12-05T06:14:41;6.28;83.02
66670;DHT22;53568;52.164;4.472;2022-12-05T06:17:06;6.32;82.91
66670;DHT22;53568;52.164;4.472;2022-12-05T06:19:32;6.54;82.31
66670;DHT22;53568;52.164;4.472;2022-12-05T06:21:57;6.52;82.31
66670;DHT22;53568;52.164;4.472;2022-12-05T06:24:23;6.48;82.28
66670;DHT22;53568;52.164;4.472;2022-12-05T06:26:48;6.54;82.37
66670;DHT22;53568;52.164;4.472;2022-12-05T06:29:14;6.58;82.00
66670;DHT22;53568;52.164;4.472;2022-12-05T06:31:40;6.61;81.90
66670;DHT22;53568;52.164;4.472;2022-12-05T06:34:06;6.37;82.60
66670;DHT22;53568;52.164;4.472;2022-12-05T06:36:31;6.51;82.60
66670;DHT22;53568;52.164;4.472;2022-12-05T06:38:58;6.56;82.33
66670;DHT22;53568;52.164;4.472;2022-12-05T06:41:25;6.67;81.80
66670;DHT22;53568;52.164;4.472;2022-12-05T06:43:55;6.75;81.57
66670;DHT22;53568;52.164;4.472;2022-12-05T06:46:22;6.74;81.67
66670;DHT22;53568;52.164;4.472;2022-12-05T06:48:48;6.65;82.03
66670;DHT22;53568;52.164;4.472;2022-12-05T06:51:15;6.67;82.01
66670;DHT22;53568;52.164;4.472;2022-12-05T06:53:42;6.75;81.55
66670;DHT22;53568;52.164;4.472;2022-12-05T06:56:12;6.67;81.56
66670;DHT22;53568;52.164;4.472;2022-12-05T06:58:43;6.72;81.42
66670;DHT22;53568;52.164;4.472;2022-12-05T07:01:11;6.69;81.92
66670;DHT22;53568;52.164;4.472;2022-12-05T07:03:56;6.71;81.88
66670;DHT22;53568;52.164;4.472;2022-12-05T07:06:22;6.71;82.08
66670;DHT22;53568;52.164;4.472;2022-12-05T07:08:47;6.72;81.97
66670;DHT22;53568;52.164;4.472;2022-12-05T07:11:13;6.72;81.77
66670;DHT22;53568;52.164;4.472;2022-12-05T07:13:38;6.51;82.53
66670;DHT22;53568;52.164;4.472;2022-12-05T07:16:05;6.74;81.97
66670;DHT22;53568;52.164;4.472;2022-12-05T07:18:32;6.71;82.06
66670;DHT22;53568;52.164;4.472;2022-12-05T07:21:00;6.69;82.34
66670;DHT22;53568;52.164;4.472;2022-12-05T07:23:26;6.85;82.15
66670;DHT22;53568;52.164;4.472;2022-12-05T07:25:53;6.93;81.80
66670;DHT22;53568;52.164;4.472;2022-12-05T07:28:18;6.81;82.09
66670;DHT22;53568;52.164;4.472;2022-12-05T07:30:44;6.82;82.33
66670;DHT22;53568;52.164;4.472;2022-12-05T07:33:09;6.93;81.87
66670;DHT22;53568;52.164;4.472;2022-12-05T07:35:35;6.95;81.67
66670;DHT22;53568;52.164;4.472;2022-12-05T07:38:01;6.88;82.04
66670;DHT22;53568;52.164;4.472;2022-12-05T07:40:27;6.85;82.21
66670;DHT22;53568;52.164;4.472;2022-12-05T07:42:52;6.95;81.86
66670;DHT22;53568;52.164;4.472;2022-12-05T07:45:21;6.84;81.91
66670;DHT22;53568;52.164;4.472;2022-12-05T07:47:47;6.81;82.34
66670;DHT22;53568;52.164;4.472;2022-12-05T07:50:13;6.84;82.16
66670;DHT22;53568;52.164;4.472;2022-12-05T07:52:39;6.88;82.20
66670;DHT22;53568;52.164;4.472;2022-12-05T07:55:06;6.99;81.91
66670;DHT22;53568;52.164;4.472;2022-12-05T07:57:31;7.03;81.93
66670;DHT22;53568;52.164;4.472;2022-12-05T07:59:57;7.02;81.62
66670;DHT22;53568;52.164;4.472;2022-12-05T08:02:22;7.05;81.65
66670;DHT22;53568;52.164;4.472;2022-12-05T08:04:48;6.99;81.74
66670;DHT22;53568;52.164;4.472;2022-12-05T08:07:14;6.97;81.50
66670;DHT22;53568;52.164;4.472;2022-12-05T08:09:39;6.67;82.51
66670;DHT22;53568;52.164;4.472;2022-12-05T08:12:05;6.91;81.88
66670;DHT22;53568;52.164;4.472;2022-12-05T08:14:30;6.71;82.45
66670;DHT22;53568;52.164;4.472;2022-12-05T08:16:56;6.86;82.12
66670;DHT22;53568;52.164;4.472;2022-12-05T08:19:22;6.88;82.04
66670;DHT22;53568;52.164;4.472;2022-12-05T08:21:47;6.78;82.17
66670;DHT22;53568;52.164;4.472;2022-12-05T08:24:13;6.95;81.91
66670;DHT22;53568;52.164;4.472;2022-12-05T08:26:40;6.89;82.21
66670;DHT22;53568;52.164;4.472;2022-12-05T08:29:11;6.95;81.65
66670;DHT22;53568;52.164;4.472;2022-12-05T08:31:45;6.89;81.87
66670;DHT22;53568;52.164;4.472;2022-12-05T08:34:12;6.86;82.35
66670;DHT22;53568;52.164;4.472;2022-12-05T08:36:39;6.97;81.69
66670;DHT22;53568;52.164;4.472;2022-12-05T08:39:07;6.86;82.00
66670;DHT22;53568;52.164;4.472;2022-12-05T08:41:33;7.02;81.78
66670;DHT22;53568;52.164;4.472;2022-12-05T08:44:01;6.96;81.65
66670;DHT22;53568;52.164;4.472;2022-12-05T08:46:28;6.75;82.53
66670;DHT22;53568;52.164;4.472;2022-12-05T08:48:54;6.92;82.25
66670;DHT22;53568;52.164;4.472;2022-12-05T08:51:19;6.78;82.42
66670;DHT22;53568;52.164;4.472;2022-12-05T08:53:45;6.89;82.29
66670;DHT22;53568;52.164;4.472;2022-12-05T08:56:11;6.92;81.86
66670;DHT22;53568;52.164;4.472;2022-12-05T08:58:38;6.85;81.92
66670;DHT22;53568;52.164;4.472;2022-12-05T09:01:10;7.06;81.68
66670;DHT22;53568;52.164;4.472;2022-12-05T09:03:36;6.92;82.09
66670;DHT22;53568;52.164;4.472;2022-12-05T09:06:07;6.99;82.16
66670;DHT22;53568;52.164;4.472;2022-12-05T09:08:33;7.00;82.05
66670;DHT22;53568;52.164;4.472;2022-12-05T09:10:58;7.15;81.52
66670;DHT22;53568;52.164;4.472;2022-12-05T09:13:24;7.15;81.46
66670;DHT22;53568;52.164;4.472;2022-12-05T09:15:49;7.06;81.63
66670;DHT22;53568;52.164;4.472;2022-12-05T09:18:15;7.12;81.87
66670;DHT22;53568;52.164;4.472;2022-12-05T09:20:40;7.07;81.54
66670;DHT22;53568;52.164;4.472;2022-12-05T09:23:06;7.16;81.70
66670;DHT22;53568;52.164;4.472;2022-12-05T09:25:31;7.27;81.33
66670;DHT22;53568;52.164;4.472;2022-12-05T09:27:57;7.15;81.60
66670;DHT22;53568;52.164;4.472;2022-12-05T09:30:22;7.05;81.94
66670;DHT22;53568;52.164;4.472;2022-12-05T09:32:48;7.06;81.73
66670;DHT22;53568;52.164;4.472;2022-12-05T09:35:13;7.06;82.13
66670;DHT22;53568;52.164;4.472;2022-12-05T09:37:39;7.03;82.18
66670;DHT22;53568;52.164;4.472;2022-12-05T09:40:05;7.16;81.77
66670;DHT22;53568;52.164;4.472;2022-12-05T09:42:52;7.10;81.55
66670;DHT22;53568;52.164;4.472;2022-12-05T09:45:24;7.09;81.84
66670;DHT22;53568;52.164;4.472;2022-12-05T09:47:58;7.07;81.66
66670;DHT22;53568;52.164;4.472;2022-12-05T09:50:31;7.20;81.55
66670;DHT22;53568;52.164;4.472;2022-12-05T09:55:53;7.26;81.34
66670;DHT22;53568;52.164;4.472;2022-12-05T10:01:35;7.17;81.72
66670;DHT22;53568;52.164;4.472;2022-12-05T10:06:58;7.23;81.30
66670;DHT22;53568;52.164;4.472;2022-12-05T10:09:50;7.13;81.53
66670;DHT22;53568;52.164;4.472;2022-12-05T10:16:29;7.17;81.68
66670;DHT22;53568;52.164;4.472;2022-12-05T10:21:37;7.19;81.35
66670;DHT22;53568;52.164;4.472;2022-12-05T10:24:18;7.30;81.20
66670;DHT22;53568;52.164;4.472;2022-12-05T10:26:57;7.10;81.60
66670;DHT22;53568;52.164;4.472;2022-12-05T10:29:35;7.19;81.82
66670;DHT22;53568;52.164;4.472;2022-12-05T10:32:12;7.29;81.60
66670;DHT22;53568;52.164;4.472;2022-12-05T10:34:41;7.33;81.24
66670;DHT22;53568;52.164;4.472;2022-12-05T10:37:21;7.06;82.29
66670;DHT22;53568;52.164;4.472;2022-12-05T10:39:49;7.20;81.97
66670;DHT22;53568;52.164;4.472;2022-12-05T10:42:28;7.23;81.65
66670;DHT22;53568;52.164;4.472;2022-12-05T10:45:02;7.13;82.15
66670;DHT22;53568;52.164;4.472;2022-12-05T10:47:30;7.19;82.12
66670;DHT22;53568;52.164;4.472;2022-12-05T10:50:01;7.33;81.91
66670;DHT22;53568;52.164;4.472;2022-12-05T10:52:29;7.22;82.15
66670;DHT22;53568;52.164;4.472;2022-12-05T10:55:04;7.16;82.12
66670;DHT22;53568;52.164;4.472;2022-12-05T10:57:30;7.00;82.65
66670;DHT22;53568;52.164;4.472;2022-12-05T10:59:56;7.22;82.51
66670;DHT22;53568;52.164;4.472;2022-12-05T11:02:29;7.22;82.61
66670;DHT22;53568;52.164;4.472;2022-12-05T11:04:56;7.20;82.46
66670;DHT22;53568;52.164;4.472;2022-12-05T11:07:30;7.20;82.75
66670;DHT22;53568;52.164;4.472;2022-12-05T11:09:58;7.23;82.94
66670;DHT22;53568;52.164;4.472;2022-12-05T11:12:43;7.30;82.82
66670;DHT22;53568;52.164;4.472;2022-12-05T11:17:41;7.03;83.29
66670;DHT22;53568;52.164;4.472;2022-12-05T11:22:53;7.17;83.01
66670;DHT22;53568;52.164;4.472;2022-12-05T11:25:28;7.27;82.78
66670;DHT22;53568;52.164;4.472;2022-12-05T11:27:55;7.17;83.15
66670;DHT22;53568;52.164;4.472;2022-12-05T11:30:24;7.26;82.85
66670;DHT22;53568;52.164;4.472;2022-12-05T11:33:20;7.19;82.83
66670;DHT22;53568;52.164;4.472;2022-12-05T11:35:48;7.23;82.95
66670;DHT22;53568;52.164;4.472;2022-12-05T11:38:16;7.22;83.06
66670;DHT22;53568;52.164;4.472;2022-12-05T11:41:26;7.23;82.50
66670;DHT22;53568;52.164;4.472;2022-12-05T11:44:00;7.10;82.87
66670;DHT22;53568;52.164;4.472;2022-12-05T11:54:34;7.27;82.86
66670;DHT22;53568;52.164;4.472;2022-12-05T12:00:23;7.23;82.66
66670;DHT22;53568;52.164;4.472;2022-12-05T12:03:40;7.20;83.02
66670;DHT22;53568;52.164;4.472;2022-12-05T12:06:16;7.19;83.02
66670;DHT22;53568;52.164;4.472;2022-12-05T12:09:24;7.13;83.38
66670;DHT22;53568;52.164;4.472;2022-12-05T12:12:33;7.26;83.51
66670;DHT22;53568;52.164;4.472;2022-12-05T12:29:54;7.57;82.04
66670;DHT22;53568;52.164;4.472;2022-12-05T12:40:49;7.60;81.71
66670;DHT22;53568;52.164;4.472;2022-12-05T12:52:00;7.75;81.17
66670;DHT22;53568;52.164;4.472;2022-12-05T12:54:35;7.61;81.09
66670;DHT22;53568;52.164;4.472;2022-12-05T12:57:18;7.59;81.32
66670;DHT22;53568;52.164;4.472;2022-12-05T13:00:54;7.56;81.04
66670;DHT22;53568;52.164;4.472;2022-12-05T13:03:12;7.53;81.13
66670;DHT22;53568;52.164;4.472;2022-12-05T13:05:47;7.53;80.91
66670;DHT22;53568;52.164;4.472;2022-12-05T13:08:29;7.60;80.61
66670;DHT22;53568;52.164;4.472;2022-12-05T13:10:59;7.54;80.76
66670;DHT22;53568;52.164;4.472;2022-12-05T13:13:36;7.51;80.59
66670;DHT22;53568;52.164;4.472;2022-12-05T13:16:05;7.53;80.37
66670;DHT22;53568;52.164;4.472;2022-12-05T13:18:33;7.61;80.19
66670;DHT22;53568;52.164;4.472;2022-12-05T13:21:04;7.66;79.92
66670;DHT22;53568;52.164;4.472;2022-12-05T13:23:42;7.70;79.81
66670;DHT22;53568;52.164;4.472;2022-12-05T13:26:11;7.53;80.28
66670;DHT22;53568;52.164;4.472;2022-12-05T13:28:46;7.69;80.02
66670;DHT22;53568;52.164;4.472;2022-12-05T13:31:12;7.59;80.15
66670;DHT22;53568;52.164;4.472;2022-12-05T13:33:46;7.59;80.31
66670;DHT22;53568;52.164;4.472;2022-12-05T13:36:18;7.49;80.57
66670;DHT22;53568;52.164;4.472;2022-12-05T13:39:11;7.51;80.26
66670;DHT22;53568;52.164;4.472;2022-12-05T13:42:00;7.63;80.15
66670;DHT22;53568;52.164;4.472;2022-12-05T13:44:56;7.64;79.64
66670;DHT22;53568;52.164;4.472;2022-12-05T13:50:33;7.69;79.80
66670;DHT22;53568;52.164;4.472;2022-12-05T13:53:18;7.63;79.83
66670;DHT22;53568;52.164;4.472;2022-12-05T13:55:56;7.73;79.83
66670;DHT22;53568;52.164;4.472;2022-12-05T14:00:49;7.80;79.44
66670;DHT22;53568;52.164;4.472;2022-12-05T14:05:59;7.84;79.67
66670;DHT22;53568;52.164;4.472;2022-12-05T14:19:19;7.90;79.87
66670;DHT22;53568;52.164;4.472;2022-12-05T14:22:02;7.93;79.51
66670;DHT22;53568;52.164;4.472;2022-12-05T14:24:43;7.80;79.97
66670;DHT22;53568;52.164;4.472;2022-12-05T14:30:20;7.59;80.51
66670;DHT22;53568;52.164;4.472;2022-12-05T14:32:49;7.66;80.68
66670;DHT22;53568;52.164;4.472;2022-12-05T14:35:21;7.75;80.35
66670;DHT22;53568;52.164;4.472;2022-12-05T14:38:01;7.69;80.76
66670;DHT22;53568;52.164;4.472;2022-12-05T14:40:35;7.73;80.60
66670;DHT22;53568;52.164;4.472;2022-12-05T14:43:06;7.83;80.32
66670;DHT22;53568;52.164;4.472;2022-12-05T14:45:39;7.94;79.94
66670;DHT22;53568;52.164;4.472;2022-12-05T14:53:29;8.02;79.56
66670;DHT22;53568;52.164;4.472;2022-12-05T14:56:16;7.94;79.66
66670;DHT22;53568;52.164;4.472;2022-12-05T14:59:05;8.07;79.61
66670;DHT22;53568;52.164;4.472;2022-12-05T15:01:53;8.15;79.25
66670;DHT22;53568;52.164;4.472;2022-12-05T15:04:37;7.98;79.73
66670;DHT22;53568;52.164;4.472;2022-12-05T15:07:18;7.98;79.61
66670;DHT22;53568;52.164;4.472;2022-12-05T15:12:27;7.78;80.31
66670;DHT22;53568;52.164;4.472;2022-12-05T15:17:37;7.83;80.38
66670;DHT22;53568;52.164;4.472;2022-12-05T15:20:22;7.74;80.33
66670;DHT22;53568;52.164;4.472;2022-12-05T15:22:50;7.63;80.93
66670;DHT22;53568;52.164;4.472;2022-12-05T15:25:26;7.66;81.00
66670;DHT22;53568;52.164;4.472;2022-12-05T15:27:54;7.64;80.98
66670;DHT22;53568;52.164;4.472;2022-12-05T15:30:19;7.74;80.52
66670;DHT22;53568;52.164;4.472;2022-12-05T15:32:45;7.71;80.90
66670;DHT22;53568;52.164;4.472;2022-12-05T15:35:13;7.71;80.99
66670;DHT22;53568;52.164;4.472;2022-12-05T15:40:15;7.81;80.53
66670;DHT22;53568;52.164;4.472;2022-12-05T15:42:50;7.77;80.63
66670;DHT22;53568;52.164;4.472;2022-12-05T15:45:19;7.69;80.63
66670;DHT22;53568;52.164;4.472;2022-12-05T15:48:10;7.70;80.85
66670;DHT22;53568;52.164;4.472;2022-12-05T15:50:42;7.66;81.11
66670;DHT22;53568;52.164;4.472;2022-12-05T15:53:33;7.61;81.21
66670;DHT22;53568;52.164;4.472;2022-12-05T15:56:31;7.73;81.10
66670;DHT22;53568;52.164;4.472;2022-12-05T15:59:13;7.69;81.25
66670;DHT22;53568;52.164;4.472;2022-12-05T16:01:47;7.73;81.48
66670;DHT22;53568;52.164;4.472;2022-12-05T16:04:32;7.77;81.24
66670;DHT22;53568;52.164;4.472;2022-12-05T16:07:05;7.73;81.54
66670;DHT22;53568;52.164;4.472;2022-12-05T16:09:38;7.81;81.28
66670;DHT22;53568;52.164;4.472;2022-12-05T16:14:54;7.73;81.47
66670;DHT22;53568;52.164;4.472;2022-12-05T16:17:21;7.61;82.00
66670;DHT22;53568;52.164;4.472;2022-12-05T16:19:47;7.61;82.33
66670;DHT22;53568;52.164;4.472;2022-12-05T16:24:44;7.46;82.51
66670;DHT22;53568;52.164;4.472;2022-12-05T16:27:32;7.56;82.23
66670;DHT22;53568;52.164;4.472;2022-12-05T16:32:43;7.53;82.89
66670;DHT22;53568;52.164;4.472;2022-12-05T16:35:42;7.40;83.06
66670;DHT22;53568;52.164;4.472;2022-12-05T16:38:16;7.36;83.41
66670;DHT22;53568;52.164;4.472;2022-12-05T16:45:48;7.33;83.17
66670;DHT22;53568;52.164;4.472;2022-12-05T16:53:40;7.70;82.36
66670;DHT22;53568;52.164;4.472;2022-12-05T16:56:11;7.64;82.84
66670;DHT22;53568;52.164;4.472;2022-12-05T16:58:38;7.77;82.22
66670;DHT22;53568;52.164;4.472;2022-12-05T17:01:05;7.66;82.30
66670;DHT22;53568;52.164;4.472;2022-12-05T17:03:33;7.70;82.49
66670;DHT22;53568;52.164;4.472;2022-12-05T17:06:00;7.85;82.14
66670;DHT22;53568;52.164;4.472;2022-12-05T17:08:26;7.77;82.42
66670;DHT22;53568;52.164;4.472;2022-12-05T17:10:52;7.81;82.30
66670;DHT22;53568;52.164;4.472;2022-12-05T17:13:18;7.83;82.27
66670;DHT22;53568;52.164;4.472;2022-12-05T17:15:45;7.99;81.64
66670;DHT22;53568;52.164;4.472;2022-12-05T17:18:16;7.97;81.55
66670;DHT22;53568;52.164;4.472;2022-12-05T17:20:45;8.02;81.10
66670;DHT22;53568;52.164;4.472;2022-12-05T17:23:13;7.90;81.51
66670;DHT22;53568;52.164;4.472;2022-12-05T17:25:51;7.93;81.58
66670;DHT22;53568;52.164;4.472;2022-12-05T17:28:17;7.91;81.52
66670;DHT22;53568;52.164;4.472;2022-12-05T17:30:42;8.04;81.39
66670;DHT22;53568;52.164;4.472;2022-12-05T17:33:14;7.74;81.69
66670;DHT22;53568;52.164;4.472;2022-12-05T17:35:40;7.74;82.05
66670;DHT22;53568;52.164;4.472;2022-12-05T17:38:07;7.63;82.18
66670;DHT22;53568;52.164;4.472;2022-12-05T17:40:33;7.54;82.27
66670;DHT22;53568;52.164;4.472;2022-12-05T17:42:59;7.71;81.87
66670;DHT22;53568;52.164;4.472;2022-12-05T17:45:25;7.80;81.72
66670;DHT22;53568;52.164;4.472;2022-12-05T17:47:50;7.73;81.96
66670;DHT22;53568;52.164;4.472;2022-12-05T17:50:19;7.59;82.29
66670;DHT22;53568;52.164;4.472;2022-12-05T17:52:46;7.67;82.17
66670;DHT22;53568;52.164;4.472;2022-12-05T17:57:42;7.61;82.41
66670;DHT22;53568;52.164;4.472;2022-12-05T18:00:10;7.47;82.86
66670;DHT22;53568;52.164;4.472;2022-12-05T18:02:36;7.46;82.96
66670;DHT22;53568;52.164;4.472;2022-12-05T18:05:02;7.60;82.69
66670;DHT22;53568;52.164;4.472;2022-12-05T18:07:28;7.57;82.49
66670;DHT22;53568;52.164;4.472;2022-12-05T18:09:53;7.50;82.94
66670;DHT22;53568;52.164;4.472;2022-12-05T18:12:20;7.67;82.39
66670;DHT22;53568;52.164;4.472;2022-12-05T18:14:45;7.75;82.00
66670;DHT22;53568;52.164;4.472;2022-12-05T18:17:11;7.66;81.92
66670;DHT22;53568;52.164;4.472;2022-12-05T18:19:36;7.69;82.27
66670;DHT22;53568;52.164;4.472;2022-12-05T18:22:02;7.61;82.40
66670;DHT22;53568;52.164;4.472;2022-12-05T18:24:27;7.57;82.48
66670;DHT22;53568;52.164;4.472;2022-12-05T18:26:53;7.71;81.74
66670;DHT22;53568;52.164;4.472;2022-12-05T18:29:21;7.71;82.05
66670;DHT22;53568;52.164;4.472;2022-12-05T18:31:47;7.80;81.62
66670;DHT22;53568;52.164;4.472;2022-12-05T18:34:13;7.87;81.24
66670;DHT22;53568;52.164;4.472;2022-12-05T18:36:38;7.90;81.03
66670;DHT22;53568;52.164;4.472;2022-12-05T18:39:05;7.97;80.90